sensor_id;sensor_type;location;lat;lon;timestamp;temperature;humidity
2327;DHT22;1174;51.588;7.328;2023-04-03T00:01:47;2.80;99.90
2327;DHT22;1174;51.588;7.328;2023-04-03T00:04:13;2.80;99.90
2327;DHT22;1174;51.588;7.328;2023-04-03T00:06:42;2.70;99.90
2327;DHT22;1174;51.588;7.328;2023-04-03T00:09:09;2.70;99.90
2327;DHT22;1174;51.588;7.328;2023-04-03T00:11:36;2.70;99.90
2327;DHT22;1174;51.588;7.328;2023-04-03T00:14:03;2.70;99.90
2327;DHT22;1174;51.588;7.328;2023-04-03T00:16:30;2.70;99.90
2327;DHT22;1174;51.588;7.328;2023-04-03T00:18:57;2.80;99.90
2327;DHT22;1174;51.588;7.328;2023-04-03T00:21:23;2.70;99.90
2327;DHT22;1174;51.588;7.328;2023-04-03T00:23:52;2.70;99.90
2327;DHT22;1174;51.588;7.328;2023-04-03T00:26:19;2.70;99.90
2327;DHT22;1174;51.588;7.328;2023-04-03T00:28:47;2.80;99.90
2327;DHT22;1174;51.588;7.328;2023-04-03T00:31:14;2.80;99.90
2327;DHT22;1174;51.588;7.328;2023-04-03T00:33:42;2.90;99.90
2327;DHT22;1174;51.588;7.328;2023-04-03T00:36:10;3.00;99.90
2327;DHT22;1174;51.588;7.328;2023-04-03T00:38:37;3.00;99.90
2327;DHT22;1174;51.588;7.328;2023-04-03T00:41:05;3.10;99.90
2327;DHT22;1174;51.588;7.328;2023-04-03T00:43:32;3.20;99.90
2327;DHT22;1174;51.588;7.328;2023-04-03T00:45:59;3.20;99.90
2327;DHT22;1174;51.588;7.328;2023-04-03T00:48:30;3.20;99.90
2327;DHT22;1174;51.588;7.328;2023-04-03T00:50:58;3.30;99.90
2327;DHT22;1174;51.588;7.328;2023-04-03T00:53:27;3.40;99.90
2327;DHT22;1174;51.588;7.328;2023-04-03T00:55:57;3.50;99.90
2327;DHT22;1174;51.588;7.328;2023-04-03T00:58:31;3.50;99.90
2327;DHT22;1174;51.588;7.328;2023-04-03T01:01:05;3.50;99.90
2327;DHT22;1174;51.588;7.328;2023-04-03T01:03:33;3.50;99.90
2327;DHT22;1174;51.588;7.328;2023-04-03T01:06:00;3.50;99.90
2327;DHT22;1174;51.588;7.328;2023-04-03T01:08:27;3.50;99.90
2327;DHT22;1174;51.588;7.328;2023-04-03T01:10:54;3.60;99.90
2327;DHT22;1174;51.588;7.328;2023-04-03T01:13:24;3.50;99.90
2327;DHT22;1174;51.588;7.328;2023-04-03T01:15:54;3.60;99.90
2327;DHT22;1174;51.588;7.328;2023-04-03T01:18:22;3.70;99.90
2327;DHT22;1174;51.588;7.328;2023-04-03T01:24:11;3.50;99.90
2327;DHT22;1174;51.588;7.328;2023-04-03T01:26:44;3.50;99.90
2327;DHT22;1174;51.588;7.328;2023-04-03T01:29:11;3.50;99.90
2327;DHT22;1174;51.588;7.328;2023-04-03T01:31:48;3.60;99.90
2327;DHT22;1174;51.588;7.328;2023-04-03T01:34:15;3.60;99.90
2327;DHT22;1174;51.588;7.328;2023-04-03T01:36:42;3.50;99.90
2327;DHT22;1174;51.588;7.328;2023-04-03T01:39:10;3.50;99.90
2327;DHT22;1174;51.588;7.328;2023-04-03T01:41:37;3.60;99.90
2327;DHT22;1174;51.588;7.328;2023-04-03T01:44:04;3.50;99.90
2327;DHT22;1174;51.588;7.328;2023-04-03T01:46:31;3.40;99.90
2327;DHT22;1174;51.588;7.328;2023-04-03T01:49:00;3.40;99.90
2327;DHT22;1174;51.588;7.328;2023-04-03T01:51:27;3.40;99.90
2327;DHT22;1174;51.588;7.328;2023-04-03T01:53:54;3.40;99.90
2327;DHT22;1174;51.588;7.328;2023-04-03T01:56:22;3.40;99.90
2327;DHT22;1174;51.588;7.328;2023-04-03T01:58:49;3.40;99.90
2327;DHT22;1174;51.588;7.328;2023-04-03T02:01:16;3.50;99.90
2327;DHT22;1174;51.588;7.328;2023-04-03T02:03:43;3.40;99.90
2327;DHT22;1174;51.588;7.328;2023-04-03T02:06:11;3.40;99.90
2327;DHT22;1174;51.588;7.328;2023-04-03T02:08:38;3.30;99.90
2327;DHT22;1174;51.588;7.328;2023-04-03T02:11:05;3.30;99.90
2327;DHT22;1174;51.588;7.328;2023-04-03T02:13:32;3.30;99.90
2327;DHT22;1174;51.588;7.328;2023-04-03T02:16:06;3.30;99.90
2327;DHT22;1174;51.588;7.328;2023-04-03T02:18:33;3.20;99.90
2327;DHT22;1174;51.588;7.328;2023-04-03T02:21:00;3.30;99.90
2327;DHT22;1174;51.588;7.328;2023-04-03T02:23:28;3.30;99.90
2327;DHT22;1174;51.588;7.328;2023-04-03T02:26:03;3.30;99.90
2327;DHT22;1174;51.588;7.328;2023-04-03T02:28:30;3.20;99.90
2327;DHT22;1174;51.588;7.328;2023-04-03T02:30:57;3.30;99.90
2327;DHT22;1174;51.588;7.328;2023-04-03T02:33:24;3.20;99.90
2327;DHT22;1174;51.588;7.328;2023-04-03T02:35:54;3.10;99.90
2327;DHT22;1174;51.588;7.328;2023-04-03T02:38:22;3.10;99.90
2327;DHT22;1174;51.588;7.328;2023-04-03T02:40:50;3.10;99.90
2327;DHT22;1174;51.588;7.328;2023-04-03T02:43:17;3.00;99.90
2327;DHT22;1174;51.588;7.328;2023-04-03T02:45:44;3.10;99.90
2327;DHT22;1174;51.588;7.328;2023-04-03T02:48:12;3.10;99.90
2327;DHT22;1174;51.588;7.328;2023-04-03T02:50:40;3.00;99.90
2327;DHT22;1174;51.588;7.328;2023-04-03T02:53:07;3.00;99.90
2327;DHT22;1174;51.588;7.328;2023-04-03T02:55:34;3.00;99.90
2327;DHT22;1174;51.588;7.328;2023-04-03T02:58:02;3.00;99.90
2327;DHT22;1174;51.588;7.328;2023-04-03T03:00:30;2.90;99.90
2327;DHT22;1174;51.588;7.328;2023-04-03T03:02:57;2.90;99.90
2327;DHT22;1174;51.588;7.328;2023-04-03T03:05:25;2.90;99.90
2327;DHT22;1174;51.588;7.328;2023-04-03T03:07:53;2.90;99.90
2327;DHT22;1174;51.588;7.328;2023-04-03T03:10:20;2.90;99.90
2327;DHT22;1174;51.588;7.328;2023-04-03T03:12:47;2.80;99.90
2327;DHT22;1174;51.588;7.328;2023-04-03T03:15:15;2.80;99.90
2327;DHT22;1174;51.588;7.328;2023-04-03T03:17:45;2.90;99.90
2327;DHT22;1174;51.588;7.328;2023-04-03T03:20:13;2.80;99.90
2327;DHT22;1174;51.588;7.328;2023-04-03T03:22:40;2.90;99.90
2327;DHT22;1174;51.588;7.328;2023-04-03T03:25:08;2.90;99.90
2327;DHT22;1174;51.588;7.328;2023-04-03T03:27:35;2.80;99.90
2327;DHT22;1174;51.588;7.328;2023-04-03T03:30:03;2.80;99.90
2327;DHT22;1174;51.588;7.328;2023-04-03T03:32:31;2.70;99.90
2327;DHT22;1174;51.588;7.328;2023-04-03T03:34:58;2.70;99.90
2327;DHT22;1174;51.588;7.328;2023-04-03T03:37:25;2.70;99.90
2327;DHT22;1174;51.588;7.328;2023-04-03T03:39:52;2.60;99.90
2327;DHT22;1174;51.588;7.328;2023-04-03T03:42:20;2.60;99.90
2327;DHT22;1174;51.588;7.328;2023-04-03T03:44:47;2.60;99.90
2327;DHT22;1174;51.588;7.328;2023-04-03T03:47:14;2.60;99.90
2327;DHT22;1174;51.588;7.328;2023-04-03T03:49:43;2.50;99.90
2327;DHT22;1174;51.588;7.328;2023-04-03T03:52:10;2.50;99.90
2327;DHT22;1174;51.588;7.328;2023-04-03T03:54:37;2.50;99.90
2327;DHT22;1174;51.588;7.328;2023-04-03T03:57:04;2.50;99.90
2327;DHT22;1174;51.588;7.328;2023-04-03T03:59:31;2.50;99.90
2327;DHT22;1174;51.588;7.328;2023-04-03T04:01:58;2.50;99.90
2327;DHT22;1174;51.588;7.328;2023-04-03T04:04:25;2.50;99.90
2327;DHT22;1174;51.588;7.328;2023-04-03T04:06:54;2.40;99.90
2327;DHT22;1174;51.588;7.328;2023-04-03T04:09:21;2.40;99.90
2327;DHT22;1174;51.588;7.328;2023-04-03T04:11:48;2.30;99.90
2327;DHT22;1174;51.588;7.328;2023-04-03T04:14:15;2.30;99.90
2327;DHT22;1174;51.588;7.328;2023-04-03T04:16:42;2.40;99.90
2327;DHT22;1174;51.588;7.328;2023-04-03T04:19:09;2.40;99.90
2327;DHT22;1174;51.588;7.328;2023-04-03T04:21:36;2.40;99.90
2327;DHT22;1174;51.588;7.328;2023-04-03T04:24:05;2.30;99.90
2327;DHT22;1174;51.588;7.328;2023-04-03T04:26:34;2.30;99.90
2327;DHT22;1174;51.588;7.328;2023-04-03T04:29:01;2.20;99.90
2327;DHT22;1174;51.588;7.328;2023-04-03T04:31:28;2.20;99.90
2327;DHT22;1174;51.588;7.328;2023-04-03T04:33:55;2.20;99.90
2327;DHT22;1174;51.588;7.328;2023-04-03T04:36:22;2.20;99.90
2327;DHT22;1174;51.588;7.328;2023-04-03T04:38:49;2.10;99.90
2327;DHT22;1174;51.588;7.328;2023-04-03T04:41:19;2.10;99.90
2327;DHT22;1174;51.588;7.328;2023-04-03T04:43:47;2.20;99.90
2327;DHT22;1174;51.588;7.328;2023-04-03T04:46:15;2.20;99.90
2327;DHT22;1174;51.588;7.328;2023-04-03T04:48:42;2.10;99.90
2327;DHT22;1174;51.588;7.328;2023-04-03T04:51:09;2.10;99.90
2327;DHT22;1174;51.588;7.328;2023-04-03T04:53:39;2.10;99.90
2327;DHT22;1174;51.588;7.328;2023-04-03T04:56:06;2.10;99.90
2327;DHT22;1174;51.588;7.328;2023-04-03T04:58:36;2.00;99.90
2327;DHT22;1174;51.588;7.328;2023-04-03T05:01:05;2.00;99.90
2327;DHT22;1174;51.588;7.328;2023-04-03T05:03:32;2.00;99.90
2327;DHT22;1174;51.588;7.328;2023-04-03T05:06:00;2.00;99.90
2327;DHT22;1174;51.588;7.328;2023-04-03T05:08:27;2.00;99.90
2327;DHT22;1174;51.588;7.328;2023-04-03T05:10:55;1.90;99.90
2327;DHT22;1174;51.588;7.328;2023-04-03T05:13:22;1.90;99.90
2327;DHT22;1174;51.588;7.328;2023-04-03T05:15:50;1.90;99.90
2327;DHT22;1174;51.588;7.328;2023-04-03T05:18:17;1.80;99.90
2327;DHT22;1174;51.588;7.328;2023-04-03T05:20:44;1.90;99.90
2327;DHT22;1174;51.588;7.328;2023-04-03T05:23:11;1.90;99.90
2327;DHT22;1174;51.588;7.328;2023-04-03T05:25:38;1.90;99.90
2327;DHT22;1174;51.588;7.328;2023-04-03T05:28:06;1.90;99.90
2327;DHT22;1174;51.588;7.328;2023-04-03T05:30:33;1.90;99.90
2327;DHT22;1174;51.588;7.328;2023-04-03T05:33:01;2.00;99.90
2327;DHT22;1174;51.588;7.328;2023-04-03T05:35:29;1.90;99.90
2327;DHT22;1174;51.588;7.328;2023-04-03T05:37:55;1.80;99.90
2327;DHT22;1174;51.588;7.328;2023-04-03T05:40:24;1.90;99.90
2327;DHT22;1174;51.588;7.328;2023-04-03T05:42:51;2.10;99.90
2327;DHT22;1174;51.588;7.328;2023-04-03T05:45:19;2.20;99.90
2327;DHT22;1174;51.588;7.328;2023-04-03T05:47:46;2.30;99.90
2327;DHT22;1174;51.588;7.328;2023-04-03T05:50:14;2.30;99.90
2327;DHT22;1174;51.588;7.328;2023-04-03T05:52:44;2.40;99.90
2327;DHT22;1174;51.588;7.328;2023-04-03T05:55:12;2.60;99.90
2327;DHT22;1174;51.588;7.328;2023-04-03T05:57:39;2.80;99.90
2327;DHT22;1174;51.588;7.328;2023-04-03T06:00:07;2.90;99.90
2327;DHT22;1174;51.588;7.328;2023-04-03T06:02:35;3.30;99.90
2327;DHT22;1174;51.588;7.328;2023-04-03T06:05:03;3.70;99.90
2327;DHT22;1174;51.588;7.328;2023-04-03T06:07:31;4.10;99.90
2327;DHT22;1174;51.588;7.328;2023-04-03T06:09:58;4.30;99.90
2327;DHT22;1174;51.588;7.328;2023-04-03T06:12:25;4.70;99.90
2327;DHT22;1174;51.588;7.328;2023-04-03T06:14:54;5.00;99.90
2327;DHT22;1174;51.588;7.328;2023-04-03T06:17:21;5.20;99.90
2327;DHT22;1174;51.588;7.328;2023-04-03T06:19:49;5.50;99.90
2327;DHT22;1174;51.588;7.328;2023-04-03T06:22:18;5.60;99.90
2327;DHT22;1174;51.588;7.328;2023-04-03T06:24:48;5.50;99.90
2327;DHT22;1174;51.588;7.328;2023-04-03T06:27:15;5.30;99.90
2327;DHT22;1174;51.588;7.328;2023-04-03T06:29:42;5.50;99.90
2327;DHT22;1174;51.588;7.328;2023-04-03T06:32:10;5.60;99.90
2327;DHT22;1174;51.588;7.328;2023-04-03T06:34:37;5.70;99.90
2327;DHT22;1174;51.588;7.328;2023-04-03T06:37:10;5.70;99.90
2327;DHT22;1174;51.588;7.328;2023-04-03T06:39:37;5.90;99.90
2327;DHT22;1174;51.588;7.328;2023-04-03T06:42:05;5.90;99.90
2327;DHT22;1174;51.588;7.328;2023-04-03T06:44:32;6.00;99.90
2327;DHT22;1174;51.588;7.328;2023-04-03T06:47:00;5.90;99.90
2327;DHT22;1174;51.588;7.328;2023-04-03T06:49:27;5.60;99.90
2327;DHT22;1174;51.588;7.328;2023-04-03T06:51:54;5.60;99.90
2327;DHT22;1174;51.588;7.328;2023-04-03T06:54:21;5.90;99.90
2327;DHT22;1174;51.588;7.328;2023-04-03T06:56:48;6.00;99.90
2327;DHT22;1174;51.588;7.328;2023-04-03T06:59:17;6.00;99.90
2327;DHT22;1174;51.588;7.328;2023-04-03T07:01:47;6.40;99.90
2327;DHT22;1174;51.588;7.328;2023-04-03T07:04:14;7.00;99.90
2327;DHT22;1174;51.588;7.328;2023-04-03T07:06:41;7.20;99.90
2327;DHT22;1174;51.588;7.328;2023-04-03T07:09:09;7.10;99.90
2327;DHT22;1174;51.588;7.328;2023-04-03T07:11:36;7.60;99.90
2327;DHT22;1174;51.588;7.328;2023-04-03T07:14:03;7.20;99.90
2327;DHT22;1174;51.588;7.328;2023-04-03T07:16:33;7.50;99.90
2327;DHT22;1174;51.588;7.328;2023-04-03T07:19:00;7.70;99.90
2327;DHT22;1174;51.588;7.328;2023-04-03T07:21:27;7.60;99.90
2327;DHT22;1174;51.588;7.328;2023-04-03T07:23:54;7.60;99.90
2327;DHT22;1174;51.588;7.328;2023-04-03T07:26:21;7.50;99.90
2327;DHT22;1174;51.588;7.328;2023-04-03T07:28:49;7.20;99.90
2327;DHT22;1174;51.588;7.328;2023-04-03T07:31:16;7.50;99.90
2327;DHT22;1174;51.588;7.328;2023-04-03T07:33:45;7.90;99.90
2327;DHT22;1174;51.588;7.328;2023-04-03T07:36:16;7.70;99.90
2327;DHT22;1174;51.588;7.328;2023-04-03T07:38:43;7.20;99.90
2327;DHT22;1174;51.588;7.328;2023-04-03T07:41:12;6.80;99.90
2327;DHT22;1174;51.588;7.328;2023-04-03T07:43:41;6.90;99.90
2327;DHT22;1174;51.588;7.328;2023-04-03T07:46:08;6.90;99.90
2327;DHT22;1174;51.588;7.328;2023-04-03T07:48:39;7.00;99.90
2327;DHT22;1174;51.588;7.328;2023-04-03T07:51:07;7.70;99.90
2327;DHT22;1174;51.588;7.328;2023-04-03T07:53:34;7.90;99.90
2327;DHT22;1174;51.588;7.328;2023-04-03T07:56:01;7.70;99.90
2327;DHT22;1174;51.588;7.328;2023-04-03T07:58:29;7.60;99.90
2327;DHT22;1174;51.588;7.328;2023-04-03T08:00:56;7.50;99.90
2327;DHT22;1174;51.588;7.328;2023-04-03T08:03:23;8.30;99.90
2327;DHT22;1174;51.588;7.328;2023-04-03T08:05:50;8.90;99.90
2327;DHT22;1174;51.588;7.328;2023-04-03T08:08:22;9.10;99.90
2327;DHT22;1174;51.588;7.328;2023-04-03T08:10:49;8.90;99.90
2327;DHT22;1174;51.588;7.328;2023-04-03T08:13:17;9.00;99.90
2327;DHT22;1174;51.588;7.328;2023-04-03T08:15:44;9.40;99.90
2327;DHT22;1174;51.588;7.328;2023-04-03T08:18:11;9.40;99.90
2327;DHT22;1174;51.588;7.328;2023-04-03T08:20:38;9.60;99.90
2327;DHT22;1174;51.588;7.328;2023-04-03T08:23:06;10.00;99.90
2327;DHT22;1174;51.588;7.328;2023-04-03T08:25:34;10.20;99.90
2327;DHT22;1174;51.588;7.328;2023-04-03T08:28:04;10.20;99.90
2327;DHT22;1174;51.588;7.328;2023-04-03T08:30:31;10.00;99.90
2327;DHT22;1174;51.588;7.328;2023-04-03T08:33:00;10.10;99.90
2327;DHT22;1174;51.588;7.328;2023-04-03T08:35:27;10.50;99.70
2327;DHT22;1174;51.588;7.328;2023-04-03T08:37:54;10.50;98.40
2327;DHT22;1174;51.588;7.328;2023-04-03T08:40:22;10.80;97.80
2327;DHT22;1174;51.588;7.328;2023-04-03T08:42:59;11.10;98.40
2327;DHT22;1174;51.588;7.328;2023-04-03T08:45:38;11.10;95.50
2327;DHT22;1174;51.588;7.328;2023-04-03T08:48:13;10.90;95.80
2327;DHT22;1174;51.588;7.328;2023-04-03T08:50:43;11.30;95.80
2327;DHT22;1174;51.588;7.328;2023-04-03T08:53:15;12.10;95.90
2327;DHT22;1174;51.588;7.328;2023-04-03T08:55:44;12.50;92.50
2327;DHT22;1174;51.588;7.328;2023-04-03T08:58:16;12.80;90.90
2327;DHT22;1174;51.588;7.328;2023-04-03T09:00:47;12.00;90.50
2327;DHT22;1174;51.588;7.328;2023-04-03T09:03:17;11.90;89.50
2327;DHT22;1174;51.588;7.328;2023-04-03T09:05:47;12.20;89.90
2327;DHT22;1174;51.588;7.328;2023-04-03T09:08:22;12.30;86.20
2327;DHT22;1174;51.588;7.328;2023-04-03T09:10:55;12.90;83.20
2327;DHT22;1174;51.588;7.328;2023-04-03T09:13:32;13.60;83.30
2327;DHT22;1174;51.588;7.328;2023-04-03T09:16:05;13.40;78.30
2327;DHT22;1174;51.588;7.328;2023-04-03T09:18:41;13.20;81.20
2327;DHT22;1174;51.588;7.328;2023-04-03T09:21:16;12.40;72.90
2327;DHT22;1174;51.588;7.328;2023-04-03T09:23:50;12.50;76.20
2327;DHT22;1174;51.588;7.328;2023-04-03T09:26:21;13.20;77.80
2327;DHT22;1174;51.588;7.328;2023-04-03T09:28:52;13.50;73.20
2327;DHT22;1174;51.588;7.328;2023-04-03T09:31:23;12.90;73.20
2327;DHT22;1174;51.588;7.328;2023-04-03T09:33:56;12.50;73.40
2327;DHT22;1174;51.588;7.328;2023-04-03T09:36:41;12.30;70.70
2327;DHT22;1174;51.588;7.328;2023-04-03T09:39:12;12.30;71.70
2327;DHT22;1174;51.588;7.328;2023-04-03T09:41:40;12.50;72.20
2327;DHT22;1174;51.588;7.328;2023-04-03T09:44:21;13.50;72.10
2327;DHT22;1174;51.588;7.328;2023-04-03T09:46:51;13.60;68.90
2327;DHT22;1174;51.588;7.328;2023-04-03T09:49:19;13.10;69.30
2327;DHT22;1174;51.588;7.328;2023-04-03T09:51:46;13.40;67.20
2327;DHT22;1174;51.588;7.328;2023-04-03T09:54:35;12.70;65.10
2327;DHT22;1174;51.588;7.328;2023-04-03T09:57:08;12.10;62.60
2327;DHT22;1174;51.588;7.328;2023-04-03T09:59:46;12.10;65.80
2327;DHT22;1174;51.588;7.328;2023-04-03T10:02:34;12.20;63.70
2327;DHT22;1174;51.588;7.328;2023-04-03T10:05:01;12.10;64.70
2327;DHT22;1174;51.588;7.328;2023-04-03T10:07:34;12.60;68.50
2327;DHT22;1174;51.588;7.328;2023-04-03T10:10:15;14.20;70.40
2327;DHT22;1174;51.588;7.328;2023-04-03T10:12:43;13.80;66.40
2327;DHT22;1174;51.588;7.328;2023-04-03T10:15:14;13.60;64.90
2327;DHT22;1174;51.588;7.328;2023-04-03T10:17:49;13.30;64.40
2327;DHT22;1174;51.588;7.328;2023-04-03T10:20:27;13.10;65.40
2327;DHT22;1174;51.588;7.328;2023-04-03T10:23:05;14.10;67.10
2327;DHT22;1174;51.588;7.328;2023-04-03T10:25:40;14.50;63.50
2327;DHT22;1174;51.588;7.328;2023-04-03T10:28:14;14.70;62.30
2327;DHT22;1174;51.588;7.328;2023-04-03T10:30:50;14.50;62.70
2327;DHT22;1174;51.588;7.328;2023-04-03T10:33:38;14.70;63.80
2327;DHT22;1174;51.588;7.328;2023-04-03T10:36:12;14.80;60.00
2327;DHT22;1174;51.588;7.328;2023-04-03T10:38:48;14.50;59.80
2327;DHT22;1174;51.588;7.328;2023-04-03T10:41:24;14.20;60.20
2327;DHT22;1174;51.588;7.328;2023-04-03T10:44:03;14.50;59.00
2327;DHT22;1174;51.588;7.328;2023-04-03T10:46:38;14.00;59.80
2327;DHT22;1174;51.588;7.328;2023-04-03T10:49:25;14.30;60.50
2327;DHT22;1174;51.588;7.328;2023-04-03T10:52:00;14.30;59.70
2327;DHT22;1174;51.588;7.328;2023-04-03T10:54:34;14.70;58.50
2327;DHT22;1174;51.588;7.328;2023-04-03T10:57:05;14.30;57.50
2327;DHT22;1174;51.588;7.328;2023-04-03T10:59:35;14.10;57.10
2327;DHT22;1174;51.588;7.328;2023-04-03T11:02:10;14.50;55.80
2327;DHT22;1174;51.588;7.328;2023-04-03T11:04:42;14.20;55.40
2327;DHT22;1174;51.588;7.328;2023-04-03T11:07:16;14.50;56.40
2327;DHT22;1174;51.588;7.328;2023-04-03T11:09:46;15.20;56.10
2327;DHT22;1174;51.588;7.328;2023-04-03T11:12:21;14.20;56.20
2327;DHT22;1174;51.588;7.328;2023-04-03T11:14:52;13.10;56.20
2327;DHT22;1174;51.588;7.328;2023-04-03T11:17:30;13.60;56.60
2327;DHT22;1174;51.588;7.328;2023-04-03T11:20:06;14.10;55.20
2327;DHT22;1174;51.588;7.328;2023-04-03T11:22:37;13.90;56.00
2327;DHT22;1174;51.588;7.328;2023-04-03T11:25:15;13.90;56.70
2327;DHT22;1174;51.588;7.328;2023-04-03T11:27:49;13.90;55.90
2327;DHT22;1174;51.588;7.328;2023-04-03T11:30:20;14.30;56.40
2327;DHT22;1174;51.588;7.328;2023-04-03T11:33:10;14.80;54.90
2327;DHT22;1174;51.588;7.328;2023-04-03T11:35:43;14.90;53.20
2327;DHT22;1174;51.588;7.328;2023-04-03T11:38:17;14.00;52.70
2327;DHT22;1174;51.588;7.328;2023-04-03T11:40:47;14.80;53.40
2327;DHT22;1174;51.588;7.328;2023-04-03T11:43:23;15.80;53.70
2327;DHT22;1174;51.588;7.328;2023-04-03T11:45:56;17.10;52.90
2327;DHT22;1174;51.588;7.328;2023-04-03T11:48:51;16.20;51.80
2327;DHT22;1174;51.588;7.328;2023-04-03T11:51:51;16.90;52.80
2327;DHT22;1174;51.588;7.328;2023-04-03T11:54:47;15.80;51.80
2327;DHT22;1174;51.588;7.328;2023-04-03T12:00:50;15.60;53.20
2327;DHT22;1174;51.588;7.328;2023-04-03T12:03:32;15.40;52.40
2327;DHT22;1174;51.588;7.328;2023-04-03T12:09:24;15.60;51.50
2327;DHT22;1174;51.588;7.328;2023-04-03T12:11:51;15.20;51.60
2327;DHT22;1174;51.588;7.328;2023-04-03T12:14:22;14.80;51.90
2327;DHT22;1174;51.588;7.328;2023-04-03T12:16:52;14.60;52.20
2327;DHT22;1174;51.588;7.328;2023-04-03T12:19:34;15.40;52.10
2327;DHT22;1174;51.588;7.328;2023-04-03T12:22:13;14.90;51.60
2327;DHT22;1174;51.588;7.328;2023-04-03T12:24:43;15.40;53.50
2327;DHT22;1174;51.588;7.328;2023-04-03T12:27:33;15.80;53.50
2327;DHT22;1174;51.588;7.328;2023-04-03T12:30:21;16.90;53.30
2327;DHT22;1174;51.588;7.328;2023-04-03T12:33:02;16.00;49.10
2327;DHT22;1174;51.588;7.328;2023-04-03T12:35:35;15.30;50.30
2327;DHT22;1174;51.588;7.328;2023-04-03T12:38:25;15.20;51.20
2327;DHT22;1174;51.588;7.328;2023-04-03T12:41:11;15.60;52.00
2327;DHT22;1174;51.588;7.328;2023-04-03T12:43:50;15.60;50.20
2327;DHT22;1174;51.588;7.328;2023-04-03T12:46:24;15.90;52.20
2327;DHT22;1174;51.588;7.328;2023-04-03T12:48:55;15.20;50.90
2327;DHT22;1174;51.588;7.328;2023-04-03T12:51:26;15.10;52.10
2327;DHT22;1174;51.588;7.328;2023-04-03T12:54:00;15.40;51.30
2327;DHT22;1174;51.588;7.328;2023-04-03T12:56:31;15.70;51.30
2327;DHT22;1174;51.588;7.328;2023-04-03T12:59:14;16.70;51.90
2327;DHT22;1174;51.588;7.328;2023-04-03T13:01:42;17.30;51.30
2327;DHT22;1174;51.588;7.328;2023-04-03T13:04:10;17.60;51.30
2327;DHT22;1174;51.588;7.328;2023-04-03T13:06:40;18.30;51.10
2327;DHT22;1174;51.588;7.328;2023-04-03T13:09:19;17.70;49.40
2327;DHT22;1174;51.588;7.328;2023-04-03T13:11:52;16.50;49.90
2327;DHT22;1174;51.588;7.328;2023-04-03T13:14:24;15.40;51.00
2327;DHT22;1174;51.588;7.328;2023-04-03T13:16:56;15.10;51.00
2327;DHT22;1174;51.588;7.328;2023-04-03T13:19:24;14.90;52.70
2327;DHT22;1174;51.588;7.328;2023-04-03T13:21:59;15.80;51.70
2327;DHT22;1174;51.588;7.328;2023-04-03T13:24:28;16.80;51.80
2327;DHT22;1174;51.588;7.328;2023-04-03T13:26:58;16.10;50.90
2327;DHT22;1174;51.588;7.328;2023-04-03T13:29:29;15.90;51.30
2327;DHT22;1174;51.588;7.328;2023-04-03T13:31:57;15.60;49.60
2327;DHT22;1174;51.588;7.328;2023-04-03T13:34:28;15.30;51.10
2327;DHT22;1174;51.588;7.328;2023-04-03T13:36:58;15.30;51.70
2327;DHT22;1174;51.588;7.328;2023-04-03T13:39:28;15.80;51.20
2327;DHT22;1174;51.588;7.328;2023-04-03T13:41:57;15.50;50.80
2327;DHT22;1174;51.588;7.328;2023-04-03T13:44:33;14.90;51.80
2327;DHT22;1174;51.588;7.328;2023-04-03T13:47:14;15.50;52.80
2327;DHT22;1174;51.588;7.328;2023-04-03T13:49:44;16.40;51.80
2327;DHT22;1174;51.588;7.328;2023-04-03T13:52:26;16.20;51.20
2327;DHT22;1174;51.588;7.328;2023-04-03T13:54:56;15.30;51.40
2327;DHT22;1174;51.588;7.328;2023-04-03T13:57:25;15.10;51.70
2327;DHT22;1174;51.588;7.328;2023-04-03T13:59:52;15.50;51.60
2327;DHT22;1174;51.588;7.328;2023-04-03T14:02:22;15.10;50.80
2327;DHT22;1174;51.588;7.328;2023-04-03T14:04:52;15.40;50.80
2327;DHT22;1174;51.588;7.328;2023-04-03T14:07:22;15.90;51.50
2327;DHT22;1174;51.588;7.328;2023-04-03T14:09:49;15.80;51.10
2327;DHT22;1174;51.588;7.328;2023-04-03T14:12:19;16.10;50.50
2327;DHT22;1174;51.588;7.328;2023-04-03T14:14:49;15.80;49.80
2327;DHT22;1174;51.588;7.328;2023-04-03T14:17:17;15.70;50.70
2327;DHT22;1174;51.588;7.328;2023-04-03T14:19:47;15.00;51.40
2327;DHT22;1174;51.588;7.328;2023-04-03T14:22:17;15.70;53.20
2327;DHT22;1174;51.588;7.328;2023-04-03T14:24:44;16.30;50.60
2327;DHT22;1174;51.588;7.328;2023-04-03T14:27:17;16.00;51.50
2327;DHT22;1174;51.588;7.328;2023-04-03T14:29:44;15.40;51.70
2327;DHT22;1174;51.588;7.328;2023-04-03T14:32:14;14.80;52.30
2327;DHT22;1174;51.588;7.328;2023-04-03T14:34:42;14.10;51.70
2327;DHT22;1174;51.588;7.328;2023-04-03T14:37:11;13.90;53.20
2327;DHT22;1174;51.588;7.328;2023-04-03T14:39:38;13.80;53.10
2327;DHT22;1174;51.588;7.328;2023-04-03T14:42:05;13.70;53.00
2327;DHT22;1174;51.588;7.328;2023-04-03T14:44:33;13.00;52.80
2327;DHT22;1174;51.588;7.328;2023-04-03T14:47:00;12.20;53.60
2327;DHT22;1174;51.588;7.328;2023-04-03T14:49:29;11.80;55.50
2327;DHT22;1174;51.588;7.328;2023-04-03T14:51:57;11.90;55.90
2327;DHT22;1174;51.588;7.328;2023-04-03T14:54:25;11.80;55.30
2327;DHT22;1174;51.588;7.328;2023-04-03T14:56:54;11.90;56.20
2327;DHT22;1174;51.588;7.328;2023-04-03T14:59:24;11.40;55.90
2327;DHT22;1174;51.588;7.328;2023-04-03T15:01:51;11.20;54.80
2327;DHT22;1174;51.588;7.328;2023-04-03T15:04:20;11.00;55.20
2327;DHT22;1174;51.588;7.328;2023-04-03T15:06:49;10.90;55.50
2327;DHT22;1174;51.588;7.328;2023-04-03T15:09:21;10.90;55.40
2327;DHT22;1174;51.588;7.328;2023-04-03T15:11:48;11.30;57.00
2327;DHT22;1174;51.588;7.328;2023-04-03T15:14:16;11.10;57.90
2327;DHT22;1174;51.588;7.328;2023-04-03T15:16:43;10.70;57.00
2327;DHT22;1174;51.588;7.328;2023-04-03T15:19:12;10.80;58.50
2327;DHT22;1174;51.588;7.328;2023-04-03T15:21:40;10.90;58.10
2327;DHT22;1174;51.588;7.328;2023-04-03T15:24:09;11.00;58.60
2327;DHT22;1174;51.588;7.328;2023-04-03T15:26:36;11.30;59.50
2327;DHT22;1174;51.588;7.328;2023-04-03T15:29:03;10.90;57.10
2327;DHT22;1174;51.588;7.328;2023-04-03T15:31:31;10.40;57.90
2327;DHT22;1174;51.588;7.328;2023-04-03T15:33:58;10.40;57.80
2327;DHT22;1174;51.588;7.328;2023-04-03T15:36:25;10.40;58.00
2327;DHT22;1174;51.588;7.328;2023-04-03T15:38:52;10.60;59.00
2327;DHT22;1174;51.588;7.328;2023-04-03T15:41:20;10.80;57.70
2327;DHT22;1174;51.588;7.328;2023-04-03T15:43:47;10.40;57.40
2327;DHT22;1174;51.588;7.328;2023-04-03T15:46:16;10.40;58.60
2327;DHT22;1174;51.588;7.328;2023-04-03T15:48:43;10.20;58.30
2327;DHT22;1174;51.588;7.328;2023-04-03T15:51:10;10.20;59.00
2327;DHT22;1174;51.588;7.328;2023-04-03T15:53:37;10.10;58.90
2327;DHT22;1174;51.588;7.328;2023-04-03T15:56:05;9.80;59.70
2327;DHT22;1174;51.588;7.328;2023-04-03T15:58:35;9.80;60.00
2327;DHT22;1174;51.588;7.328;2023-04-03T16:01:02;9.80;60.40
2327;DHT22;1174;51.588;7.328;2023-04-03T16:03:29;9.90;60.70
2327;DHT22;1174;51.588;7.328;2023-04-03T16:05:57;9.80;59.80
2327;DHT22;1174;51.588;7.328;2023-04-03T16:08:24;9.80;61.20
2327;DHT22;1174;51.588;7.328;2023-04-03T16:10:51;9.80;61.30
2327;DHT22;1174;51.588;7.328;2023-04-03T16:13:18;9.80;61.80
2327;DHT22;1174;51.588;7.328;2023-04-03T16:15:46;9.70;62.50
2327;DHT22;1174;51.588;7.328;2023-04-03T16:18:14;9.50;62.50
2327;DHT22;1174;51.588;7.328;2023-04-03T16:20:41;9.50;62.20
2327;DHT22;1174;51.588;7.328;2023-04-03T16:23:09;9.60;61.90
2327;DHT22;1174;51.588;7.328;2023-04-03T16:25:36;9.60;62.20
2327;DHT22;1174;51.588;7.328;2023-04-03T16:28:03;9.60;62.00
2327;DHT22;1174;51.588;7.328;2023-04-03T16:30:30;9.70;62.30
2327;DHT22;1174;51.588;7.328;2023-04-03T16:32:59;9.80;62.10
2327;DHT22;1174;51.588;7.328;2023-04-03T16:35:26;9.90;61.70
2327;DHT22;1174;51.588;7.328;2023-04-03T16:37:54;9.50;59.90